CYYJ/YYJ METAR and TAF weather

Enter ICAO airport designator
Station Type Date Time Source
CYYJ METAR 2019/06/18 16:00 UTC NOAA

CYYJ 181600Z 31007KT 20SM BKN043 18/10 A3019 RMK SC7 SLP224 DENSITY ALT 200FT


Station Type Date Time Source
CYYJ Decoded METAR 2019/06/18 16:00 UTC NOAA

Victoria Int. Airport, B. C., Canada (CYYJ) 48-39N 123-26W 19M
Jun 18, 2019 - 12:00 PM EDT / 2019.06.18 1600 UTC
Wind: from the NW (310 degrees) at 8 MPH (7 KT):0
Visibility: 20 mile(s):0
Sky conditions: mostly cloudy
Temperature: 64 F (18 C)
Dew Point: 50 F (10 C)
Relative Humidity: 59%
Pressure (altimeter): 30.19 in. Hg (1022 hPa)
ob: CYYJ 181600Z 31007KT 20SM BKN043 18/10 A3019 RMK SC7 SLP224 DENSITY ALT 200FT
cycle: 16

Station Type Date Time Source
CYYJ TAF 2019/06/18 12:42 UTC NOAA

TAF CYYJ 181138Z 1812/1912 28007KT P6SM SCT050 BKN080
TEMPO 1812/1819 SCT015 BKN050
BECMG 1816/1818 13008KT
FM181900 14010KT P6SM SCT040
BECMG 1900/1902 24010KT
RMK NXT FCST BY 181800Z

Example: see airport list